пятница, 26 января 2018 г.

Туман в Храброво. Никто не прилетел 26-го января 2018 г

+ данные Flightradar24

Аэропорт «Храброво» продлевает время работы до 03:00 (04:00 МСК) часов 27.01.2018

На 18:30 часов неблагоприятные метеоусловия в аэропорту "Храброво" сохраняются. Из-за  тумана видимость на взлетно-посадочной полосе недостаточная для осуществления посадки воздушных судов. В связи с этим задерживается прибытие 10 рейсов, ряд рейсов отменен (в Варшаву, Минск и Санкт-Петербург). В связи с неприбытием воздушных судов по расписанию задерживается вылет обратных рейсов из Калининграда.
При улучшении метеоусловий аэропорт будет обслуживать все задержанные рейсы.

UMKK 261600Z 23001MPS 0150 0100S R24/0300N -RA FG VV002 03/03 Q1019 R24/29//60 NOSIG RMK QBB070 OBST OBSC QFE763/1018

26 Jan Moscow (SVO) Kaliningrad (KGD) SU1000 - 10:25 10:42 20:00
Diverted to LED

08:30 B2947
Minsk (MSQ)
Belavia CRJ2 (EW-277PJ)
Landed 10:31

10:55 SU6323
St. Petersburg (LED)
Rossiya A319 (VQ-BBA)
Diverted to LED

11:30 UT389
Moscow (VKO)
UTair B734 (VQ-BIG)
Diverted to VKO

11:45 SU6325
St. Petersburg (LED)
Rossiya A319 (VP-BIS)
Diverted to LED

13:05 U6391
St. Petersburg (LED)
Ural Airlines A319 (VQ-BTP)
Diverted to LED

18:30 LO699 Warsaw (WAW) LOT DH4
Canceled

18:50 B2949 Minsk (MSQ) Belavia CRJ2 (EW-303PJ)
Canceled

ВЫЛЕТ

15:55 S768 Moscow (DME) S7 Airlines 319 Delayed 00:09